sensor_id;sensor_type;location;lat;lon;timestamp;P1;durP1;ratioP1;P2;durP2;ratioP2
78670;SDS011;68277;52.724;6.516;2024-01-07T00:00:02;10.27;;;4.03;;
78670;SDS011;68277;52.724;6.516;2024-01-07T00:02:29;9.88;;;3.60;;
78670;SDS011;68277;52.724;6.516;2024-01-07T00:04:56;6.60;;;3.78;;
78670;SDS011;68277;52.724;6.516;2024-01-07T00:07:23;9.00;;;3.47;;
78670;SDS011;68277;52.724;6.516;2024-01-07T00:09:48;5.40;;;4.18;;
78670;SDS011;68277;52.724;6.516;2024-01-07T00:12:14;9.45;;;4.75;;
78670;SDS011;68277;52.724;6.516;2024-01-07T00:14:40;7.25;;;3.90;;
78670;SDS011;68277;52.724;6.516;2024-01-07T00:17:05;6.30;;;4.32;;
78670;SDS011;68277;52.724;6.516;2024-01-07T00:19:31;4.43;;;2.67;;
78670;SDS011;68277;52.724;6.516;2024-01-07T00:21:57;4.20;;;2.78;;
78670;SDS011;68277;52.724;6.516;2024-01-07T00:24:22;8.55;;;4.85;;
78670;SDS011;68277;52.724;6.516;2024-01-07T00:26:51;9.77;;;5.13;;
78670;SDS011;68277;52.724;6.516;2024-01-07T00:29:16;5.72;;;3.55;;
78670;SDS011;68277;52.724;6.516;2024-01-07T00:31:42;6.43;;;5.47;;
78670;SDS011;68277;52.724;6.516;2024-01-07T00:34:07;5.63;;;3.30;;
78670;SDS011;68277;52.724;6.516;2024-01-07T00:36:33;5.40;;;3.95;;
78670;SDS011;68277;52.724;6.516;2024-01-07T00:38:58;8.27;;;4.90;;
78670;SDS011;68277;52.724;6.516;2024-01-07T00:41:32;7.80;;;4.20;;
78670;SDS011;68277;52.724;6.516;2024-01-07T00:43:58;7.30;;;5.35;;
78670;SDS011;68277;52.724;6.516;2024-01-07T00:46:23;7.93;;;4.32;;
78670;SDS011;68277;52.724;6.516;2024-01-07T00:48:49;12.10;;;4.38;;
78670;SDS011;68277;52.724;6.516;2024-01-07T00:51:14;10.57;;;5.47;;
78670;SDS011;68277;52.724;6.516;2024-01-07T00:53:40;5.60;;;2.22;;
78670;SDS011;68277;52.724;6.516;2024-01-07T00:56:05;6.75;;;4.53;;
78670;SDS011;68277;52.724;6.516;2024-01-07T00:58:31;5.22;;;2.72;;
78670;SDS011;68277;52.724;6.516;2024-01-07T01:00:57;9.20;;;4.95;;
78670;SDS011;68277;52.724;6.516;2024-01-07T01:03:25;3.70;;;2.63;;
78670;SDS011;68277;52.724;6.516;2024-01-07T01:05:50;3.20;;;2.55;;
78670;SDS011;68277;52.724;6.516;2024-01-07T01:08:16;7.35;;;4.18;;
78670;SDS011;68277;52.724;6.516;2024-01-07T01:10:42;8.05;;;3.80;;
78670;SDS011;68277;52.724;6.516;2024-01-07T01:13:16;3.80;;;3.10;;
78670;SDS011;68277;52.724;6.516;2024-01-07T01:15:42;7.40;;;2.70;;
78670;SDS011;68277;52.724;6.516;2024-01-07T01:18:07;6.45;;;3.25;;
78670;SDS011;68277;52.724;6.516;2024-01-07T01:20:33;5.50;;;3.30;;
78670;SDS011;68277;52.724;6.516;2024-01-07T01:22:58;4.13;;;3.30;;
78670;SDS011;68277;52.724;6.516;2024-01-07T01:25:24;5.55;;;4.30;;
78670;SDS011;68277;52.724;6.516;2024-01-07T01:27:50;4.97;;;3.55;;
78670;SDS011;68277;52.724;6.516;2024-01-07T01:30:17;6.93;;;3.80;;
78670;SDS011;68277;52.724;6.516;2024-01-07T01:32:42;3.92;;;3.30;;
78670;SDS011;68277;52.724;6.516;2024-01-07T01:35:09;3.75;;;2.45;;
78670;SDS011;68277;52.724;6.516;2024-01-07T01:37:34;4.45;;;3.47;;
78670;SDS011;68277;52.724;6.516;2024-01-07T01:40:00;6.65;;;3.72;;
78670;SDS011;68277;52.724;6.516;2024-01-07T01:42:26;2.50;;;2.25;;
78670;SDS011;68277;52.724;6.516;2024-01-07T01:44:51;3.60;;;2.13;;
78670;SDS011;68277;52.724;6.516;2024-01-07T01:47:18;6.80;;;3.08;;
78670;SDS011;68277;52.724;6.516;2024-01-07T01:49:45;3.90;;;3.13;;
78670;SDS011;68277;52.724;6.516;2024-01-07T01:52:11;4.45;;;3.97;;
78670;SDS011;68277;52.724;6.516;2024-01-07T01:57:03;7.72;;;3.80;;
78670;SDS011;68277;52.724;6.516;2024-01-07T01:59:30;6.13;;;3.08;;
78670;SDS011;68277;52.724;6.516;2024-01-07T02:01:59;3.45;;;1.80;;
78670;SDS011;68277;52.724;6.516;2024-01-07T02:04:25;5.65;;;2.85;;
78670;SDS011;68277;52.724;6.516;2024-01-07T02:06:51;8.65;;;2.88;;
78670;SDS011;68277;52.724;6.516;2024-01-07T02:09:17;5.50;;;4.32;;
78670;SDS011;68277;52.724;6.516;2024-01-07T02:11:42;8.23;;;4.18;;
78670;SDS011;68277;52.724;6.516;2024-01-07T02:14:08;4.32;;;3.53;;
78670;SDS011;68277;52.724;6.516;2024-01-07T02:16:33;9.75;;;2.58;;
78670;SDS011;68277;52.724;6.516;2024-01-07T02:18:59;5.45;;;2.53;;
78670;SDS011;68277;52.724;6.516;2024-01-07T02:21:24;8.23;;;3.78;;
78670;SDS011;68277;52.724;6.516;2024-01-07T02:23:50;4.00;;;3.17;;
78670;SDS011;68277;52.724;6.516;2024-01-07T02:26:15;6.78;;;3.55;;
78670;SDS011;68277;52.724;6.516;2024-01-07T02:28:41;5.35;;;2.85;;
78670;SDS011;68277;52.724;6.516;2024-01-07T02:31:06;8.10;;;3.58;;
78670;SDS011;68277;52.724;6.516;2024-01-07T02:33:32;5.90;;;4.47;;
78670;SDS011;68277;52.724;6.516;2024-01-07T02:35:58;5.05;;;3.28;;
78670;SDS011;68277;52.724;6.516;2024-01-07T02:38:23;5.43;;;3.22;;
78670;SDS011;68277;52.724;6.516;2024-01-07T02:40:49;4.13;;;2.40;;
78670;SDS011;68277;52.724;6.516;2024-01-07T02:43:14;6.97;;;3.88;;
78670;SDS011;68277;52.724;6.516;2024-01-07T02:45:40;3.35;;;2.72;;
78670;SDS011;68277;52.724;6.516;2024-01-07T02:50:34;3.42;;;2.17;;
78670;SDS011;68277;52.724;6.516;2024-01-07T02:52:59;5.75;;;3.20;;
78670;SDS011;68277;52.724;6.516;2024-01-07T02:55:25;6.47;;;3.67;;
78670;SDS011;68277;52.724;6.516;2024-01-07T02:57:50;6.38;;;2.45;;
78670;SDS011;68277;52.724;6.516;2024-01-07T03:00:16;5.63;;;4.20;;
78670;SDS011;68277;52.724;6.516;2024-01-07T03:02:42;5.35;;;3.22;;
78670;SDS011;68277;52.724;6.516;2024-01-07T03:05:10;3.33;;;2.95;;
78670;SDS011;68277;52.724;6.516;2024-01-07T03:07:37;4.80;;;2.72;;
78670;SDS011;68277;52.724;6.516;2024-01-07T03:10:05;2.30;;;1.85;;
78670;SDS011;68277;52.724;6.516;2024-01-07T03:12:31;4.28;;;3.25;;
78670;SDS011;68277;52.724;6.516;2024-01-07T03:14:56;4.72;;;3.15;;
78670;SDS011;68277;52.724;6.516;2024-01-07T03:17:22;3.92;;;2.08;;
78670;SDS011;68277;52.724;6.516;2024-01-07T03:19:49;6.63;;;2.92;;
78670;SDS011;68277;52.724;6.516;2024-01-07T03:22:14;4.70;;;3.13;;
78670;SDS011;68277;52.724;6.516;2024-01-07T03:24:41;4.65;;;2.95;;
78670;SDS011;68277;52.724;6.516;2024-01-07T03:27:07;4.05;;;2.33;;
78670;SDS011;68277;52.724;6.516;2024-01-07T03:29:33;4.82;;;2.78;;
78670;SDS011;68277;52.724;6.516;2024-01-07T03:31:58;5.75;;;4.25;;
78670;SDS011;68277;52.724;6.516;2024-01-07T03:34:24;3.05;;;2.08;;
78670;SDS011;68277;52.724;6.516;2024-01-07T03:36:49;6.50;;;2.97;;
78670;SDS011;68277;52.724;6.516;2024-01-07T03:39:16;3.70;;;2.35;;
78670;SDS011;68277;52.724;6.516;2024-01-07T03:41:41;5.75;;;3.08;;
78670;SDS011;68277;52.724;6.516;2024-01-07T03:44:07;4.68;;;2.60;;
78670;SDS011;68277;52.724;6.516;2024-01-07T03:46:33;5.50;;;2.20;;
78670;SDS011;68277;52.724;6.516;2024-01-07T03:48:58;4.18;;;2.85;;
78670;SDS011;68277;52.724;6.516;2024-01-07T03:51:24;5.75;;;4.38;;
78670;SDS011;68277;52.724;6.516;2024-01-07T03:53:49;4.05;;;2.63;;
78670;SDS011;68277;52.724;6.516;2024-01-07T03:56:15;4.50;;;2.40;;
78670;SDS011;68277;52.724;6.516;2024-01-07T03:58:41;2.55;;;1.63;;
78670;SDS011;68277;52.724;6.516;2024-01-07T04:01:06;3.72;;;2.58;;
78670;SDS011;68277;52.724;6.516;2024-01-07T04:03:32;4.38;;;3.63;;
78670;SDS011;68277;52.724;6.516;2024-01-07T04:05:57;4.43;;;2.67;;
78670;SDS011;68277;52.724;6.516;2024-01-07T04:08:23;4.97;;;3.28;;
78670;SDS011;68277;52.724;6.516;2024-01-07T04:10:48;5.82;;;3.03;;
78670;SDS011;68277;52.724;6.516;2024-01-07T04:13:14;3.28;;;2.95;;
78670;SDS011;68277;52.724;6.516;2024-01-07T04:15:40;6.57;;;4.22;;
78670;SDS011;68277;52.724;6.516;2024-01-07T04:18:06;3.90;;;3.13;;
78670;SDS011;68277;52.724;6.516;2024-01-07T04:20:32;5.18;;;4.15;;
78670;SDS011;68277;52.724;6.516;2024-01-07T04:22:57;3.38;;;2.25;;
78670;SDS011;68277;52.724;6.516;2024-01-07T04:25:23;9.45;;;3.53;;
78670;SDS011;68277;52.724;6.516;2024-01-07T04:27:49;2.78;;;2.50;;
78670;SDS011;68277;52.724;6.516;2024-01-07T04:30:15;2.30;;;2.08;;
78670;SDS011;68277;52.724;6.516;2024-01-07T04:32:41;6.90;;;2.80;;
78670;SDS011;68277;52.724;6.516;2024-01-07T04:35:06;9.68;;;2.40;;
78670;SDS011;68277;52.724;6.516;2024-01-07T04:37:38;2.83;;;2.20;;
78670;SDS011;68277;52.724;6.516;2024-01-07T04:40:05;3.60;;;3.17;;
78670;SDS011;68277;52.724;6.516;2024-01-07T04:42:31;2.75;;;1.65;;
78670;SDS011;68277;52.724;6.516;2024-01-07T04:44:57;5.72;;;2.72;;
78670;SDS011;68277;52.724;6.516;2024-01-07T04:47:32;7.30;;;3.28;;
78670;SDS011;68277;52.724;6.516;2024-01-07T04:49:59;2.80;;;1.88;;
78670;SDS011;68277;52.724;6.516;2024-01-07T04:52:25;10.50;;;3.25;;
78670;SDS011;68277;52.724;6.516;2024-01-07T04:54:52;3.20;;;2.33;;
78670;SDS011;68277;52.724;6.516;2024-01-07T04:57:18;3.95;;;2.50;;
78670;SDS011;68277;52.724;6.516;2024-01-07T04:59:44;4.05;;;2.10;;
78670;SDS011;68277;52.724;6.516;2024-01-07T05:02:10;3.38;;;2.92;;
78670;SDS011;68277;52.724;6.516;2024-01-07T05:04:36;7.82;;;3.03;;
78670;SDS011;68277;52.724;6.516;2024-01-07T05:07:02;7.28;;;3.53;;
78670;SDS011;68277;52.724;6.516;2024-01-07T05:09:28;3.20;;;2.75;;
78670;SDS011;68277;52.724;6.516;2024-01-07T05:11:54;5.22;;;3.30;;
78670;SDS011;68277;52.724;6.516;2024-01-07T05:14:19;4.43;;;3.08;;
78670;SDS011;68277;52.724;6.516;2024-01-07T05:16:45;9.20;;;4.00;;
78670;SDS011;68277;52.724;6.516;2024-01-07T05:19:10;4.28;;;3.58;;
78670;SDS011;68277;52.724;6.516;2024-01-07T05:21:36;2.58;;;2.38;;
78670;SDS011;68277;52.724;6.516;2024-01-07T05:24:02;3.90;;;2.22;;
78670;SDS011;68277;52.724;6.516;2024-01-07T05:26:28;11.30;;;2.97;;
78670;SDS011;68277;52.724;6.516;2024-01-07T05:28:53;2.65;;;1.85;;
78670;SDS011;68277;52.724;6.516;2024-01-07T05:31:19;5.55;;;2.15;;
78670;SDS011;68277;52.724;6.516;2024-01-07T05:33:45;4.43;;;2.47;;
78670;SDS011;68277;52.724;6.516;2024-01-07T05:36:14;1.45;;;1.30;;
78670;SDS011;68277;52.724;6.516;2024-01-07T05:38:43;4.05;;;2.72;;
78670;SDS011;68277;52.724;6.516;2024-01-07T05:41:08;5.00;;;2.35;;
78670;SDS011;68277;52.724;6.516;2024-01-07T05:43:36;2.28;;;1.40;;
78670;SDS011;68277;52.724;6.516;2024-01-07T05:46:02;1.33;;;1.23;;
78670;SDS011;68277;52.724;6.516;2024-01-07T05:48:28;3.13;;;2.08;;
78670;SDS011;68277;52.724;6.516;2024-01-07T05:50:54;2.25;;;1.63;;
78670;SDS011;68277;52.724;6.516;2024-01-07T05:53:19;3.20;;;1.73;;
78670;SDS011;68277;52.724;6.516;2024-01-07T05:55:45;1.40;;;1.30;;
78670;SDS011;68277;52.724;6.516;2024-01-07T05:58:10;2.05;;;1.40;;
78670;SDS011;68277;52.724;6.516;2024-01-07T06:00:37;2.88;;;1.98;;
78670;SDS011;68277;52.724;6.516;2024-01-07T06:03:03;4.20;;;1.77;;
78670;SDS011;68277;52.724;6.516;2024-01-07T06:05:29;2.30;;;1.52;;
78670;SDS011;68277;52.724;6.516;2024-01-07T06:07:55;3.25;;;1.85;;
78670;SDS011;68277;52.724;6.516;2024-01-07T06:10:20;1.85;;;1.20;;
78670;SDS011;68277;52.724;6.516;2024-01-07T06:12:52;1.48;;;1.38;;
78670;SDS011;68277;52.724;6.516;2024-01-07T06:15:18;1.98;;;1.50;;
78670;SDS011;68277;52.724;6.516;2024-01-07T06:17:43;1.02;;;0.93;;
78670;SDS011;68277;52.724;6.516;2024-01-07T06:20:11;4.32;;;1.98;;
78670;SDS011;68277;52.724;6.516;2024-01-07T06:22:36;2.58;;;1.80;;
78670;SDS011;68277;52.724;6.516;2024-01-07T06:25:02;1.13;;;1.02;;
78670;SDS011;68277;52.724;6.516;2024-01-07T06:27:28;2.78;;;1.48;;
78670;SDS011;68277;52.724;6.516;2024-01-07T06:29:54;4.43;;;0.70;;
78670;SDS011;68277;52.724;6.516;2024-01-07T06:32:20;0.95;;;0.77;;
78670;SDS011;68277;52.724;6.516;2024-01-07T06:34:46;1.60;;;1.23;;
78670;SDS011;68277;52.724;6.516;2024-01-07T06:37:12;2.08;;;1.70;;
78670;SDS011;68277;52.724;6.516;2024-01-07T06:39:38;0.65;;;0.52;;
78670;SDS011;68277;52.724;6.516;2024-01-07T06:42:04;3.00;;;2.72;;
78670;SDS011;68277;52.724;6.516;2024-01-07T06:44:30;2.83;;;1.25;;
78670;SDS011;68277;52.724;6.516;2024-01-07T06:46:55;6.18;;;1.65;;
78670;SDS011;68277;52.724;6.516;2024-01-07T06:49:21;2.28;;;1.77;;
78670;SDS011;68277;52.724;6.516;2024-01-07T06:51:46;4.22;;;1.33;;
78670;SDS011;68277;52.724;6.516;2024-01-07T06:54:12;1.13;;;0.65;;
78670;SDS011;68277;52.724;6.516;2024-01-07T06:56:38;1.10;;;1.00;;
78670;SDS011;68277;52.724;6.516;2024-01-07T06:59:03;2.15;;;1.15;;
78670;SDS011;68277;52.724;6.516;2024-01-07T07:01:29;1.27;;;1.17;;
78670;SDS011;68277;52.724;6.516;2024-01-07T07:03:54;0.40;;;0.40;;
78670;SDS011;68277;52.724;6.516;2024-01-07T07:06:20;2.92;;;0.95;;
78670;SDS011;68277;52.724;6.516;2024-01-07T07:08:45;1.00;;;0.82;;
78670;SDS011;68277;52.724;6.516;2024-01-07T07:11:11;3.70;;;1.85;;
78670;SDS011;68277;52.724;6.516;2024-01-07T07:13:37;1.92;;;1.50;;
78670;SDS011;68277;52.724;6.516;2024-01-07T07:16:03;1.58;;;1.48;;
78670;SDS011;68277;52.724;6.516;2024-01-07T07:18:29;0.68;;;0.68;;
78670;SDS011;68277;52.724;6.516;2024-01-07T07:20:55;0.77;;;0.50;;
78670;SDS011;68277;52.724;6.516;2024-01-07T07:23:20;1.70;;;0.85;;
78670;SDS011;68277;52.724;6.516;2024-01-07T07:25:46;1.73;;;1.45;;
78670;SDS011;68277;52.724;6.516;2024-01-07T07:28:11;0.40;;;0.40;;
78670;SDS011;68277;52.724;6.516;2024-01-07T07:30:37;2.20;;;1.35;;
78670;SDS011;68277;52.724;6.516;2024-01-07T07:33:03;4.30;;;1.13;;
78670;SDS011;68277;52.724;6.516;2024-01-07T07:35:29;2.78;;;1.13;;
78670;SDS011;68277;52.724;6.516;2024-01-07T07:37:57;3.70;;;0.82;;
78670;SDS011;68277;52.724;6.516;2024-01-07T07:40:22;1.52;;;1.20;;
78670;SDS011;68277;52.724;6.516;2024-01-07T07:42:48;1.83;;;1.00;;
78670;SDS011;68277;52.724;6.516;2024-01-07T07:45:14;1.63;;;0.40;;
78670;SDS011;68277;52.724;6.516;2024-01-07T07:47:40;1.20;;;0.65;;
78670;SDS011;68277;52.724;6.516;2024-01-07T07:50:10;1.02;;;0.93;;
78670;SDS011;68277;52.724;6.516;2024-01-07T07:52:36;0.82;;;0.75;;
78670;SDS011;68277;52.724;6.516;2024-01-07T07:55:02;0.47;;;0.47;;
78670;SDS011;68277;52.724;6.516;2024-01-07T07:57:27;0.63;;;0.63;;
78670;SDS011;68277;52.724;6.516;2024-01-07T07:59:54;0.65;;;0.63;;
78670;SDS011;68277;52.724;6.516;2024-01-07T08:02:20;0.73;;;0.40;;
78670;SDS011;68277;52.724;6.516;2024-01-07T08:04:46;3.25;;;0.98;;
78670;SDS011;68277;52.724;6.516;2024-01-07T08:07:12;0.95;;;0.70;;
78670;SDS011;68277;52.724;6.516;2024-01-07T08:09:38;0.40;;;0.40;;
78670;SDS011;68277;52.724;6.516;2024-01-07T08:12:06;3.15;;;1.05;;
78670;SDS011;68277;52.724;6.516;2024-01-07T08:14:32;2.47;;;0.90;;
78670;SDS011;68277;52.724;6.516;2024-01-07T08:16:58;3.65;;;1.73;;
78670;SDS011;68277;52.724;6.516;2024-01-07T08:19:24;1.30;;;1.20;;
78670;SDS011;68277;52.724;6.516;2024-01-07T08:21:49;3.25;;;1.27;;
78670;SDS011;68277;52.724;6.516;2024-01-07T08:24:15;0.20;;;0.20;;
78670;SDS011;68277;52.724;6.516;2024-01-07T08:26:40;4.85;;;0.77;;
78670;SDS011;68277;52.724;6.516;2024-01-07T08:29:06;0.50;;;0.50;;
78670;SDS011;68277;52.724;6.516;2024-01-07T08:31:31;0.70;;;0.65;;
78670;SDS011;68277;52.724;6.516;2024-01-07T08:33:57;0.88;;;0.88;;
78670;SDS011;68277;52.724;6.516;2024-01-07T08:36:23;1.60;;;0.73;;
78670;SDS011;68277;52.724;6.516;2024-01-07T08:38:55;1.02;;;1.02;;
78670;SDS011;68277;52.724;6.516;2024-01-07T08:41:21;0.90;;;0.75;;
78670;SDS011;68277;52.724;6.516;2024-01-07T08:43:46;3.00;;;0.98;;
78670;SDS011;68277;52.724;6.516;2024-01-07T08:46:12;0.50;;;0.50;;
78670;SDS011;68277;52.724;6.516;2024-01-07T08:48:39;0.50;;;0.35;;
78670;SDS011;68277;52.724;6.516;2024-01-07T08:51:05;0.57;;;0.57;;
78670;SDS011;68277;52.724;6.516;2024-01-07T08:53:31;0.40;;;0.40;;
78670;SDS011;68277;52.724;6.516;2024-01-07T08:55:57;1.17;;;0.98;;
78670;SDS011;68277;52.724;6.516;2024-01-07T08:58:22;0.60;;;0.55;;
78670;SDS011;68277;52.724;6.516;2024-01-07T09:00:48;0.57;;;0.57;;
78670;SDS011;68277;52.724;6.516;2024-01-07T09:03:13;0.63;;;0.60;;
78670;SDS011;68277;52.724;6.516;2024-01-07T09:05:39;0.95;;;0.77;;
78670;SDS011;68277;52.724;6.516;2024-01-07T09:08:04;0.40;;;0.40;;
78670;SDS011;68277;52.724;6.516;2024-01-07T09:10:32;1.52;;;1.05;;
78670;SDS011;68277;52.724;6.516;2024-01-07T09:12:58;0.57;;;0.57;;
78670;SDS011;68277;52.724;6.516;2024-01-07T09:15:25;0.70;;;0.70;;
78670;SDS011;68277;52.724;6.516;2024-01-07T09:17:51;0.60;;;0.60;;
78670;SDS011;68277;52.724;6.516;2024-01-07T09:20:16;0.47;;;0.43;;
78670;SDS011;68277;52.724;6.516;2024-01-07T09:22:42;5.07;;;1.17;;
78670;SDS011;68277;52.724;6.516;2024-01-07T09:25:09;0.77;;;0.77;;
78670;SDS011;68277;52.724;6.516;2024-01-07T09:27:35;0.20;;;0.15;;
78670;SDS011;68277;52.724;6.516;2024-01-07T09:30:02;1.52;;;1.42;;
78670;SDS011;68277;52.724;6.516;2024-01-07T09:32:28;0.95;;;0.75;;
78670;SDS011;68277;52.724;6.516;2024-01-07T09:34:53;1.90;;;0.88;;
78670;SDS011;68277;52.724;6.516;2024-01-07T09:37:19;1.45;;;0.80;;
78670;SDS011;68277;52.724;6.516;2024-01-07T09:39:45;0.65;;;0.63;;
78670;SDS011;68277;52.724;6.516;2024-01-07T09:42:14;1.73;;;1.23;;
78670;SDS011;68277;52.724;6.516;2024-01-07T09:44:41;0.93;;;0.85;;
78670;SDS011;68277;52.724;6.516;2024-01-07T09:47:11;1.85;;;1.00;;
78670;SDS011;68277;52.724;6.516;2024-01-07T09:49:41;0.57;;;0.57;;
78670;SDS011;68277;52.724;6.516;2024-01-07T09:52:09;2.67;;;0.77;;
78670;SDS011;68277;52.724;6.516;2024-01-07T09:54:36;0.57;;;0.50;;
78670;SDS011;68277;52.724;6.516;2024-01-07T09:57:03;0.50;;;0.50;;
78670;SDS011;68277;52.724;6.516;2024-01-07T09:59:34;0.60;;;0.60;;
78670;SDS011;68277;52.724;6.516;2024-01-07T10:02:00;0.80;;;0.57;;
78670;SDS011;68277;52.724;6.516;2024-01-07T10:04:26;1.27;;;0.85;;
78670;SDS011;68277;52.724;6.516;2024-01-07T10:06:53;0.60;;;0.60;;
78670;SDS011;68277;52.724;6.516;2024-01-07T10:09:19;0.77;;;0.40;;
78670;SDS011;68277;52.724;6.516;2024-01-07T10:11:52;0.82;;;0.63;;
78670;SDS011;68277;52.724;6.516;2024-01-07T10:14:18;0.63;;;0.55;;
78670;SDS011;68277;52.724;6.516;2024-01-07T10:16:47;0.40;;;0.40;;
78670;SDS011;68277;52.724;6.516;2024-01-07T10:19:18;0.75;;;0.68;;
78670;SDS011;68277;52.724;6.516;2024-01-07T10:21:46;0.28;;;0.28;;
78670;SDS011;68277;52.724;6.516;2024-01-07T10:24:12;0.28;;;0.22;;
78670;SDS011;68277;52.724;6.516;2024-01-07T10:26:38;0.30;;;0.30;;
78670;SDS011;68277;52.724;6.516;2024-01-07T10:31:32;2.28;;;1.40;;
78670;SDS011;68277;52.724;6.516;2024-01-07T10:33:58;0.40;;;0.40;;
78670;SDS011;68277;52.724;6.516;2024-01-07T10:36:24;2.28;;;1.50;;
78670;SDS011;68277;52.724;6.516;2024-01-07T10:38:49;0.40;;;0.40;;
78670;SDS011;68277;52.724;6.516;2024-01-07T10:41:18;0.30;;;0.30;;
78670;SDS011;68277;52.724;6.516;2024-01-07T10:43:48;1.00;;;0.90;;
78670;SDS011;68277;52.724;6.516;2024-01-07T10:46:14;1.95;;;0.43;;
78670;SDS011;68277;52.724;6.516;2024-01-07T10:48:59;2.28;;;2.13;;
78670;SDS011;68277;52.724;6.516;2024-01-07T10:51:29;0.47;;;0.47;;
78670;SDS011;68277;52.724;6.516;2024-01-07T10:53:59;0.10;;;0.10;;
78670;SDS011;68277;52.724;6.516;2024-01-07T10:56:37;0.63;;;0.52;;
78670;SDS011;68277;52.724;6.516;2024-01-07T10:59:07;0.90;;;0.40;;
78670;SDS011;68277;52.724;6.516;2024-01-07T11:01:33;0.52;;;0.52;;
78670;SDS011;68277;52.724;6.516;2024-01-07T11:04:08;0.77;;;0.50;;
78670;SDS011;68277;52.724;6.516;2024-01-07T11:06:49;0.57;;;0.57;;
78670;SDS011;68277;52.724;6.516;2024-01-07T11:12:26;1.20;;;0.60;;
78670;SDS011;68277;52.724;6.516;2024-01-07T11:14:52;0.22;;;0.22;;
78670;SDS011;68277;52.724;6.516;2024-01-07T11:20:04;0.50;;;0.50;;
78670;SDS011;68277;52.724;6.516;2024-01-07T11:22:44;0.50;;;0.50;;
78670;SDS011;68277;52.724;6.516;2024-01-07T11:25:29;0.30;;;0.30;;
78670;SDS011;68277;52.724;6.516;2024-01-07T11:28:00;0.98;;;0.75;;
78670;SDS011;68277;52.724;6.516;2024-01-07T11:30:26;3.03;;;1.33;;
78670;SDS011;68277;52.724;6.516;2024-01-07T11:32:56;0.88;;;0.68;;
78670;SDS011;68277;52.724;6.516;2024-01-07T11:38:21;1.05;;;0.70;;
78670;SDS011;68277;52.724;6.516;2024-01-07T11:40:47;0.40;;;0.40;;
78670;SDS011;68277;52.724;6.516;2024-01-07T11:43:14;0.40;;;0.40;;
78670;SDS011;68277;52.724;6.516;2024-01-07T11:45:40;0.47;;;0.43;;
78670;SDS011;68277;52.724;6.516;2024-01-07T11:48:10;1.27;;;0.95;;
78670;SDS011;68277;52.724;6.516;2024-01-07T11:50:38;0.98;;;0.60;;
78670;SDS011;68277;52.724;6.516;2024-01-07T11:53:04;0.80;;;0.80;;
78670;SDS011;68277;52.724;6.516;2024-01-07T11:55:29;0.60;;;0.60;;
78670;SDS011;68277;52.724;6.516;2024-01-07T11:57:58;0.88;;;0.82;;
78670;SDS011;68277;52.724;6.516;2024-01-07T12:00:27;1.05;;;0.85;;
78670;SDS011;68277;52.724;6.516;2024-01-07T12:02:53;4.38;;;0.75;;
78670;SDS011;68277;52.724;6.516;2024-01-07T12:05:18;2.75;;;0.77;;
78670;SDS011;68277;52.724;6.516;2024-01-07T12:07:44;0.30;;;0.30;;
78670;SDS011;68277;52.724;6.516;2024-01-07T12:10:10;1.35;;;0.40;;
78670;SDS011;68277;52.724;6.516;2024-01-07T12:12:38;0.47;;;0.40;;
78670;SDS011;68277;52.724;6.516;2024-01-07T12:15:05;1.27;;;0.50;;
78670;SDS011;68277;52.724;6.516;2024-01-07T12:17:32;0.38;;;0.30;;
78670;SDS011;68277;52.724;6.516;2024-01-07T12:19:57;1.20;;;0.82;;
78670;SDS011;68277;52.724;6.516;2024-01-07T12:22:23;1.10;;;0.80;;
78670;SDS011;68277;52.724;6.516;2024-01-07T12:24:59;1.17;;;0.65;;
78670;SDS011;68277;52.724;6.516;2024-01-07T12:27:26;1.98;;;0.90;;
78670;SDS011;68277;52.724;6.516;2024-01-07T12:29:55;1.10;;;1.00;;
78670;SDS011;68277;52.724;6.516;2024-01-07T12:32:22;0.43;;;0.40;;
78670;SDS011;68277;52.724;6.516;2024-01-07T12:34:48;1.48;;;0.68;;
78670;SDS011;68277;52.724;6.516;2024-01-07T12:37:16;4.20;;;0.60;;
78670;SDS011;68277;52.724;6.516;2024-01-07T12:39:42;1.27;;;0.63;;
78670;SDS011;68277;52.724;6.516;2024-01-07T12:42:08;1.20;;;0.75;;
78670;SDS011;68277;52.724;6.516;2024-01-07T12:44:35;1.73;;;0.77;;
78670;SDS011;68277;52.724;6.516;2024-01-07T12:47:01;0.95;;;0.85;;
78670;SDS011;68277;52.724;6.516;2024-01-07T12:49:28;1.50;;;0.88;;
78670;SDS011;68277;52.724;6.516;2024-01-07T12:51:57;1.20;;;0.63;;
78670;SDS011;68277;52.724;6.516;2024-01-07T12:54:22;1.52;;;0.75;;
78670;SDS011;68277;52.724;6.516;2024-01-07T12:56:50;1.38;;;0.95;;
78670;SDS011;68277;52.724;6.516;2024-01-07T12:59:16;1.80;;;1.05;;
78670;SDS011;68277;52.724;6.516;2024-01-07T13:01:42;1.33;;;0.60;;
78670;SDS011;68277;52.724;6.516;2024-01-07T13:04:08;2.50;;;1.40;;
78670;SDS011;68277;52.724;6.516;2024-01-07T13:06:34;0.88;;;0.85;;
78670;SDS011;68277;52.724;6.516;2024-01-07T13:09:03;0.77;;;0.77;;
78670;SDS011;68277;52.724;6.516;2024-01-07T13:11:31;1.08;;;0.90;;
78670;SDS011;68277;52.724;6.516;2024-01-07T13:13:57;1.05;;;0.80;;
78670;SDS011;68277;52.724;6.516;2024-01-07T13:16:25;1.83;;;1.02;;
78670;SDS011;68277;52.724;6.516;2024-01-07T13:18:56;8.80;;;1.15;;
78670;SDS011;68277;52.724;6.516;2024-01-07T13:21:22;1.27;;;0.80;;
78670;SDS011;68277;52.724;6.516;2024-01-07T13:23:48;1.45;;;0.95;;
78670;SDS011;68277;52.724;6.516;2024-01-07T13:26:14;1.67;;;1.35;;
78670;SDS011;68277;52.724;6.516;2024-01-07T13:28:40;4.38;;;1.27;;
78670;SDS011;68277;52.724;6.516;2024-01-07T13:31:06;2.25;;;0.82;;
78670;SDS011;68277;52.724;6.516;2024-01-07T13:33:38;1.80;;;1.25;;
78670;SDS011;68277;52.724;6.516;2024-01-07T13:36:15;0.95;;;0.90;;
78670;SDS011;68277;52.724;6.516;2024-01-07T13:38:40;1.75;;;1.10;;
78670;SDS011;68277;52.724;6.516;2024-01-07T13:41:07;1.35;;;0.47;;
78670;SDS011;68277;52.724;6.516;2024-01-07T13:43:40;4.97;;;1.17;;
78670;SDS011;68277;52.724;6.516;2024-01-07T13:46:06;2.13;;;0.80;;
78670;SDS011;68277;52.724;6.516;2024-01-07T13:48:32;3.70;;;2.15;;
78670;SDS011;68277;52.724;6.516;2024-01-07T13:50:57;1.67;;;1.10;;
78670;SDS011;68277;52.724;6.516;2024-01-07T13:53:23;0.90;;;0.80;;
78670;SDS011;68277;52.724;6.516;2024-01-07T13:55:49;0.82;;;0.63;;
78670;SDS011;68277;52.724;6.516;2024-01-07T13:58:14;1.15;;;0.63;;
78670;SDS011;68277;52.724;6.516;2024-01-07T14:00:40;1.00;;;0.93;;
78670;SDS011;68277;52.724;6.516;2024-01-07T14:03:06;0.70;;;0.70;;
78670;SDS011;68277;52.724;6.516;2024-01-07T14:08:14;2.00;;;1.38;;
78670;SDS011;68277;52.724;6.516;2024-01-07T14:10:40;1.25;;;1.15;;
78670;SDS011;68277;52.724;6.516;2024-01-07T14:13:19;1.05;;;0.75;;
78670;SDS011;68277;52.724;6.516;2024-01-07T14:15:47;2.83;;;1.85;;
78670;SDS011;68277;52.724;6.516;2024-01-07T14:18:16;1.02;;;0.70;;
78670;SDS011;68277;52.724;6.516;2024-01-07T14:20:54;0.88;;;0.70;;
78670;SDS011;68277;52.724;6.516;2024-01-07T14:23:23;2.03;;;1.33;;
78670;SDS011;68277;52.724;6.516;2024-01-07T14:25:51;2.30;;;1.20;;
78670;SDS011;68277;52.724;6.516;2024-01-07T14:28:17;2.28;;;1.27;;
78670;SDS011;68277;52.724;6.516;2024-01-07T14:30:43;2.47;;;1.20;;
78670;SDS011;68277;52.724;6.516;2024-01-07T14:33:24;1.15;;;1.05;;
78670;SDS011;68277;52.724;6.516;2024-01-07T14:35:50;2.25;;;1.10;;
78670;SDS011;68277;52.724;6.516;2024-01-07T14:38:16;1.67;;;1.55;;
78670;SDS011;68277;52.724;6.516;2024-01-07T14:40:44;4.78;;;1.13;;
78670;SDS011;68277;52.724;6.516;2024-01-07T14:43:12;3.75;;;1.02;;
78670;SDS011;68277;52.724;6.516;2024-01-07T14:45:38;1.25;;;1.08;;
78670;SDS011;68277;52.724;6.516;2024-01-07T14:48:04;1.42;;;1.23;;
78670;SDS011;68277;52.724;6.516;2024-01-07T14:50:30;1.48;;;1.05;;
78670;SDS011;68277;52.724;6.516;2024-01-07T14:52:56;1.15;;;1.05;;
78670;SDS011;68277;52.724;6.516;2024-01-07T14:55:23;4.78;;;1.77;;
78670;SDS011;68277;52.724;6.516;2024-01-07T14:57:48;2.58;;;1.85;;
78670;SDS011;68277;52.724;6.516;2024-01-07T15:00:14;2.72;;;1.80;;
78670;SDS011;68277;52.724;6.516;2024-01-07T15:02:40;1.50;;;0.73;;